createdAt,value
2023-12-12T00:01:58.511Z,99204.80
2023-12-12T00:04:25.148Z,99203.48
2023-12-12T00:06:51.668Z,99208.52
2023-12-12T00:09:18.168Z,99213.61
2023-12-12T00:11:44.625Z,99211.77
2023-12-12T00:14:11.458Z,99205.02
2023-12-12T00:16:37.971Z,99205.31
2023-12-12T00:19:04.692Z,99203.77
2023-12-12T00:21:31.220Z,99200.38
2023-12-12T00:23:57.735Z,99197.67
2023-12-12T00:26:24.281Z,99200.96
2023-12-12T00:28:50.879Z,99201.98
2023-12-12T00:31:17.452Z,99203.19
2023-12-12T00:33:44.098Z,99204.73
2023-12-12T00:36:10.662Z,99202.45
2023-12-12T00:38:37.537Z,99200.58
2023-12-12T00:41:05.421Z,99201.06
2023-12-12T00:43:32.213Z,99203.16
2023-12-12T00:45:58.771Z,99206.64
2023-12-12T00:48:25.498Z,99209.45
2023-12-12T00:50:52.210Z,99208.37
2023-12-12T00:53:19.023Z,99211.20
2023-12-12T00:55:45.535Z,99212.95
2023-12-12T00:58:12.048Z,99213.35
2023-12-12T01:00:38.721Z,99218.45
2023-12-12T01:03:05.305Z,99217.40
2023-12-12T01:05:31.858Z,99217.45
2023-12-12T01:07:58.401Z,99213.84
2023-12-12T01:10:25.028Z,99214.39
2023-12-12T01:12:51.900Z,99213.38
2023-12-12T01:15:18.438Z,99214.39
2023-12-12T01:17:45.121Z,99220.41
2023-12-12T01:20:11.901Z,99224.31
2023-12-12T01:22:38.511Z,99222.45
2023-12-12T01:25:06.849Z,99221.54
2023-12-12T01:27:33.493Z,99221.77
2023-12-12T01:30:00.128Z,99218.85
2023-12-12T01:32:26.849Z,99215.45
2023-12-12T01:34:53.581Z,99212.34
2023-12-12T01:37:20.191Z,99205.84
2023-12-12T01:39:46.706Z,99204.70
2023-12-12T01:42:13.228Z,99206.31
2023-12-12T01:44:39.703Z,99197.30
2023-12-12T01:47:06.948Z,99191.16
2023-12-12T01:49:33.781Z,99188.35
2023-12-12T01:52:00.493Z,99187.35
2023-12-12T01:54:27.474Z,99183.62
2023-12-12T01:56:55.013Z,99183.38
2023-12-12T01:59:23.520Z,99186.69
2023-12-12T02:01:50.461Z,99185.48
2023-12-12T02:04:18.574Z,99182.11
2023-12-12T02:06:48.352Z,99191.58
2023-12-12T02:09:16.582Z,99195.79
2023-12-12T02:11:43.701Z,99198.32
2023-12-12T02:14:11.335Z,99193.41
2023-12-12T02:16:38.285Z,99186.23
2023-12-12T02:19:05.105Z,99177.70
2023-12-12T02:21:31.711Z,99182.58
2023-12-12T02:23:58.233Z,99189.40
2023-12-12T02:26:24.928Z,99191.16
2023-12-12T02:28:51.765Z,99182.48
2023-12-12T02:31:18.550Z,99179.02
2023-12-12T02:33:45.186Z,99167.17
2023-12-12T02:36:11.813Z,99164.23
2023-12-12T02:38:38.374Z,99161.27
2023-12-12T02:41:04.911Z,99159.86
2023-12-12T02:43:31.635Z,99164.83
2023-12-12T02:45:58.241Z,99166.06
2023-12-12T02:48:25.047Z,99162.96
2023-12-12T02:50:51.736Z,99165.94
2023-12-12T02:53:18.246Z,99172.38
2023-12-12T02:55:45.195Z,99174.27
2023-12-12T02:58:11.964Z,99176.64
2023-12-12T03:00:38.641Z,99175.61
2023-12-12T03:03:05.210Z,99173.77
2023-12-12T03:05:32.176Z,99174.39
2023-12-12T03:07:58.695Z,99170.52
2023-12-12T03:10:25.326Z,99168.61
2023-12-12T03:12:52.005Z,99164.99
2023-12-12T03:15:18.924Z,99159.35
2023-12-12T03:17:45.429Z,99156.14
2023-12-12T03:20:12.477Z,99156.02
2023-12-12T03:22:38.949Z,99156.23
2023-12-12T03:25:06.658Z,99160.46
2023-12-12T03:27:33.344Z,99157.36
2023-12-12T03:30:00.162Z,99152.03
2023-12-12T03:32:26.652Z,99153.68
2023-12-12T03:34:53.841Z,99147.46
2023-12-12T03:37:20.402Z,99137.77
2023-12-12T03:39:46.905Z,99133.73
2023-12-12T03:42:13.427Z,99134.40
2023-12-12T03:44:39.970Z,99141.31
2023-12-12T03:47:06.513Z,99139.35
2023-12-12T03:49:33.025Z,99141.74
2023-12-12T03:51:59.729Z,99137.92
2023-12-12T03:54:26.946Z,99134.85
2023-12-12T03:56:53.481Z,99130.47
2023-12-12T03:59:19.932Z,99133.73
2023-12-12T04:01:50.040Z,99134.73
2023-12-12T04:04:19.761Z,99128.97
2023-12-12T04:06:47.712Z,99121.85
2023-12-12T04:09:14.240Z,99119.17
2023-12-12T04:11:40.714Z,99121.23
2023-12-12T04:14:07.221Z,99120.54
2023-12-12T04:16:34.033Z,99116.22
2023-12-12T04:19:00.791Z,99115.23
2023-12-12T04:21:27.519Z,99113.61
2023-12-12T04:23:53.976Z,99113.58
2023-12-12T04:26:20.484Z,99112.95
2023-12-12T04:28:46.996Z,99113.23
2023-12-12T04:31:18.120Z,99111.11
2023-12-12T04:33:44.937Z,99112.11
2023-12-12T04:36:15.747Z,99111.05
2023-12-12T04:38:43.306Z,99114.44
2023-12-12T04:41:10.076Z,99116.98
2023-12-12T04:43:36.946Z,99118.90
2023-12-12T04:46:04.276Z,99118.39
2023-12-12T04:48:31.247Z,99113.95
2023-12-12T04:50:58.106Z,99109.48
2023-12-12T04:53:24.850Z,99109.46
2023-12-12T04:55:51.326Z,99102.10
2023-12-12T04:58:18.061Z,99101.30
2023-12-12T05:00:44.813Z,99097.39
2023-12-12T05:03:11.393Z,99097.96
2023-12-12T05:05:37.927Z,99100.65
2023-12-12T05:08:05.167Z,99101.08
2023-12-12T05:10:31.826Z,99100.17
2023-12-12T05:12:58.518Z,99104.31
2023-12-12T05:15:25.223Z,99092.77
2023-12-12T05:17:51.880Z,99096.41
2023-12-12T05:20:18.797Z,99101.69
2023-12-12T05:22:45.515Z,99105.98
2023-12-12T05:25:12.621Z,99104.77
2023-12-12T05:27:39.181Z,99101.77
2023-12-12T05:30:06.674Z,99104.95
2023-12-12T05:32:33.292Z,99103.27
2023-12-12T05:34:59.922Z,99096.38
2023-12-12T05:37:26.453Z,99098.48
2023-12-12T05:39:53.195Z,99098.56
2023-12-12T05:42:20.081Z,99095.21
2023-12-12T05:44:46.565Z,99094.07
2023-12-12T05:47:13.160Z,99090.80
2023-12-12T05:49:39.695Z,99090.87
2023-12-12T05:52:06.991Z,99082.10
2023-12-12T05:54:33.625Z,99079.23
2023-12-12T05:57:00.579Z,99082.18
2023-12-12T05:59:27.165Z,99083.23
2023-12-12T06:01:53.634Z,99075.66
2023-12-12T06:04:20.341Z,99066.68
2023-12-12T06:06:46.910Z,99069.69
2023-12-12T06:09:14.367Z,99068.06
2023-12-12T06:11:43.333Z,99073.50
2023-12-12T06:14:10.356Z,99084.34
2023-12-12T06:16:38.078Z,99082.08
2023-12-12T06:19:06.587Z,99084.56
2023-12-12T06:21:34.436Z,99087.77
2023-12-12T06:24:03.531Z,99082.89
2023-12-12T06:26:31.509Z,99077.04
2023-12-12T06:28:58.129Z,99079.81
2023-12-12T06:31:25.052Z,99075.16
2023-12-12T06:33:53.313Z,99068.10
2023-12-12T06:36:20.522Z,99064.54
2023-12-12T06:38:47.428Z,99062.80
2023-12-12T06:41:14.172Z,99056.11
2023-12-12T06:43:41.117Z,99049.50
2023-12-12T06:46:09.382Z,99050.07
2023-12-12T06:48:38.286Z,99055.02
2023-12-12T06:51:05.971Z,99046.55
2023-12-12T06:53:32.421Z,99036.96
2023-12-12T06:55:59.133Z,99025.33
2023-12-12T06:58:25.875Z,99023.14
2023-12-12T07:00:53.076Z,99026.42
2023-12-12T07:03:20.157Z,99025.00
2023-12-12T07:05:46.954Z,99027.13
2023-12-12T07:08:13.586Z,99030.19
2023-12-12T07:10:40.190Z,99035.15
2023-12-12T07:13:07.129Z,99039.02
2023-12-12T07:15:34.632Z,99040.35
2023-12-12T07:18:01.274Z,99043.26
2023-12-12T07:20:27.888Z,99045.97
2023-12-12T07:22:54.564Z,99042.94
2023-12-12T07:25:21.808Z,99043.05
2023-12-12T07:27:48.530Z,99046.03
2023-12-12T07:30:15.175Z,99048.69
2023-12-12T07:32:41.881Z,99051.16
2023-12-12T07:35:09.422Z,99051.06
2023-12-12T07:37:36.359Z,99057.63
2023-12-12T07:40:05.423Z,99052.90
2023-12-12T07:42:32.072Z,99047.77
2023-12-12T07:44:59.170Z,99040.98
2023-12-12T07:47:34.093Z,99031.67
2023-12-12T07:50:09.885Z,99029.77
2023-12-12T07:52:37.333Z,99021.02
2023-12-12T07:55:03.961Z,99011.77
2023-12-12T07:57:30.761Z,99016.02
2023-12-12T07:59:57.467Z,99029.22
2023-12-12T08:02:24.298Z,99029.56
2023-12-12T08:04:51.178Z,99033.30
2023-12-12T08:07:17.899Z,99026.29
2023-12-12T08:09:44.529Z,99028.52
2023-12-12T08:12:11.003Z,99026.39
2023-12-12T08:14:39.975Z,99019.05
2023-12-12T08:17:08.612Z,99020.16
2023-12-12T08:19:35.305Z,99026.10
2023-12-12T08:22:03.189Z,99028.05
2023-12-12T08:24:29.741Z,99021.48
2023-12-12T08:26:56.491Z,99006.24
2023-12-12T08:29:23.116Z,98988.65
2023-12-12T08:31:49.694Z,98972.77
2023-12-12T08:34:16.428Z,98958.43
2023-12-12T08:36:43.126Z,98966.02
2023-12-12T08:39:09.692Z,98975.06
2023-12-12T08:41:39.052Z,98959.78
2023-12-12T08:44:05.590Z,98960.11
2023-12-12T08:46:32.152Z,98949.59
2023-12-12T08:48:59.700Z,98946.14
2023-12-12T08:51:31.604Z,98945.84
2023-12-12T08:54:02.398Z,98943.48
2023-12-12T08:56:29.067Z,98938.08
2023-12-12T08:58:56.203Z,98935.08
2023-12-12T09:01:23.788Z,98926.70
2023-12-12T09:03:50.615Z,98925.79
2023-12-12T09:06:17.394Z,98933.48
2023-12-12T09:08:44.432Z,98932.86
2023-12-12T09:11:14.433Z,98934.61
2023-12-12T09:13:43.796Z,98927.41
2023-12-12T09:16:10.635Z,98923.30
2023-12-12T09:18:37.933Z,98927.69
2023-12-12T09:21:05.609Z,98929.98
2023-12-12T09:23:32.262Z,98932.49
2023-12-12T09:25:58.751Z,98927.01
2023-12-12T09:28:25.743Z,98929.34
2023-12-12T09:30:52.279Z,98928.91
2023-12-12T09:33:18.979Z,98919.14
2023-12-12T09:35:45.733Z,98904.13
2023-12-12T09:38:12.493Z,98892.15
2023-12-12T09:40:40.688Z,98887.00
2023-12-12T09:43:12.426Z,98893.30
2023-12-12T09:45:45.608Z,98890.15
2023-12-12T09:48:13.123Z,98892.39
2023-12-12T09:50:40.386Z,98886.16
2023-12-12T09:53:06.955Z,98886.95
2023-12-12T09:55:33.698Z,98877.05
2023-12-12T09:58:00.429Z,98875.64
2023-12-12T10:00:26.934Z,98865.98
2023-12-12T10:02:58.445Z,98867.61
2023-12-12T10:05:27.733Z,98859.05
2023-12-12T10:08:00.710Z,98863.72
2023-12-12T10:10:32.644Z,98856.27
2023-12-12T10:12:59.275Z,98840.26
2023-12-12T10:15:27.946Z,98835.54
2023-12-12T10:17:59.303Z,98837.31
2023-12-12T10:20:32.888Z,98837.13
2023-12-12T10:23:01.902Z,98836.23
2023-12-12T10:25:30.174Z,98832.38
2023-12-12T10:27:58.680Z,98827.29
2023-12-12T10:30:25.749Z,98822.05
2023-12-12T10:32:53.771Z,98819.04
2023-12-12T10:35:22.156Z,98820.60
2023-12-12T10:37:49.754Z,98820.00
2023-12-12T10:40:23.551Z,98813.80
2023-12-12T10:42:51.324Z,98809.74
2023-12-12T10:45:18.655Z,98804.98
2023-12-12T10:47:50.904Z,98801.58
2023-12-12T10:50:19.082Z,98797.49
2023-12-12T10:52:47.793Z,98797.65
2023-12-12T10:55:16.359Z,98787.03
2023-12-12T10:57:45.743Z,98773.21
2023-12-12T11:00:17.619Z,98769.85
2023-12-12T11:02:46.706Z,98764.17
2023-12-12T11:05:15.074Z,98758.25
2023-12-12T11:07:43.824Z,98755.82
2023-12-12T11:10:13.627Z,98743.04
2023-12-12T11:12:45.034Z,98733.77
2023-12-12T11:15:14.271Z,98732.06
2023-12-12T11:17:41.243Z,98728.71
2023-12-12T11:20:13.726Z,98722.27
2023-12-12T11:22:46.340Z,98715.48
2023-12-12T11:25:20.891Z,98717.42
2023-12-12T11:27:55.199Z,98722.52
2023-12-12T11:30:33.150Z,98722.63
2023-12-12T11:33:00.000Z,98708.66
2023-12-12T11:35:32.718Z,98700.16
2023-12-12T11:38:03.645Z,98693.36
2023-12-12T11:40:31.806Z,98692.27
2023-12-12T11:43:23.370Z,98683.16
2023-12-12T11:45:50.931Z,98668.79
2023-12-12T11:48:18.370Z,98665.58
2023-12-12T11:50:47.020Z,98663.85
2023-12-12T11:53:39.667Z,98660.76
2023-12-12T11:56:06.792Z,98655.78
2023-12-12T11:58:33.390Z,98649.81
2023-12-12T12:01:00.056Z,98641.91
2023-12-12T12:03:26.945Z,98623.88
2023-12-12T12:05:53.946Z,98624.02
2023-12-12T12:08:22.145Z,98625.98
2023-12-12T12:10:59.490Z,98620.29
2023-12-12T12:13:41.140Z,98618.33
2023-12-12T12:16:11.917Z,98622.84
2023-12-12T12:18:39.252Z,98616.27
2023-12-12T12:21:09.179Z,98615.75
2023-12-12T12:23:40.374Z,98629.34
2023-12-12T12:26:07.476Z,98640.70
2023-12-12T12:28:34.908Z,98642.42
2023-12-12T12:31:03.116Z,98645.17
2023-12-12T12:33:38.726Z,98643.79
2023-12-12T12:36:06.844Z,98644.48
2023-12-12T12:38:33.896Z,98637.95
2023-12-12T12:41:00.907Z,98625.73
2023-12-12T12:43:27.760Z,98628.90
2023-12-12T12:45:55.300Z,98624.56
2023-12-12T12:48:23.477Z,98620.90
2023-12-12T12:50:51.165Z,98623.65
2023-12-12T12:53:18.714Z,98616.77
2023-12-12T12:55:46.011Z,98616.27
2023-12-12T12:58:14.080Z,98617.52
2023-12-12T13:00:45.371Z,98617.76
2023-12-12T13:03:13.617Z,98615.44
2023-12-12T13:05:40.366Z,98619.45
2023-12-12T13:08:06.909Z,98622.78
2023-12-12T13:10:43.242Z,98626.91
2023-12-12T13:13:14.903Z,98614.48
2023-12-12T13:15:41.779Z,98600.49
2023-12-12T13:18:08.359Z,98592.77
2023-12-12T13:20:34.951Z,98578.15
2023-12-12T13:23:01.526Z,98569.95
2023-12-12T13:25:28.196Z,98561.13
2023-12-12T13:27:54.714Z,98549.99
2023-12-12T13:30:22.012Z,98541.55
2023-12-12T13:32:48.874Z,98526.27
2023-12-12T13:35:27.082Z,98519.34
2023-12-12T13:38:02.225Z,98507.48
2023-12-12T13:40:29.142Z,98497.95
2023-12-12T13:42:55.769Z,98492.44
2023-12-12T13:45:22.225Z,98486.63
2023-12-12T13:47:48.942Z,98477.16
2023-12-12T13:50:15.732Z,98478.08
2023-12-12T13:52:42.825Z,98474.88
2023-12-12T13:55:09.542Z,98482.68
2023-12-12T13:57:36.178Z,98483.84
2023-12-12T14:00:03.581Z,98481.59
2023-12-12T14:02:33.581Z,98472.23
2023-12-12T14:05:03.320Z,98475.39
2023-12-12T14:07:30.635Z,98477.45
2023-12-12T14:09:57.341Z,98476.16
2023-12-12T14:12:23.861Z,98474.64
2023-12-12T14:14:50.405Z,98464.01
2023-12-12T14:17:17.031Z,98469.89
2023-12-12T14:19:43.928Z,98469.92
2023-12-12T14:22:13.557Z,98477.30
2023-12-12T14:24:41.649Z,98481.27
2023-12-12T14:27:08.479Z,98489.16
2023-12-12T14:29:35.588Z,98480.19
2023-12-12T14:32:02.712Z,98478.63
2023-12-12T14:34:29.512Z,98477.96
2023-12-12T14:36:56.202Z,98486.93
2023-12-12T14:39:23.440Z,98484.76
2023-12-12T14:41:50.089Z,98489.89
2023-12-12T14:44:16.619Z,98489.70
2023-12-12T14:46:43.137Z,98482.94
2023-12-12T14:49:09.908Z,98474.89
2023-12-12T14:51:36.462Z,98466.20
2023-12-12T14:54:05.148Z,98463.17
2023-12-12T14:56:33.604Z,98465.30
2023-12-12T14:59:00.505Z,98466.35
2023-12-12T15:01:27.928Z,98468.50
2023-12-12T15:03:54.795Z,98470.67
2023-12-12T15:06:21.764Z,98471.05
2023-12-12T15:08:48.621Z,98469.04
2023-12-12T15:11:15.140Z,98466.75
2023-12-12T15:13:41.814Z,98461.85
2023-12-12T15:16:12.530Z,98445.50
2023-12-12T15:18:40.476Z,98442.88
2023-12-12T15:21:12.406Z,98439.55
2023-12-12T15:23:40.846Z,98436.95
2023-12-12T15:26:07.426Z,98443.98
2023-12-12T15:28:34.639Z,98449.11
2023-12-12T15:31:02.625Z,98436.02
2023-12-12T15:33:32.189Z,98430.35
2023-12-12T15:35:59.869Z,98429.90
2023-12-12T15:38:27.332Z,98429.29
2023-12-12T15:40:54.063Z,98423.19
2023-12-12T15:43:20.863Z,98418.98
2023-12-12T15:45:47.615Z,98419.31
2023-12-12T15:48:14.406Z,98417.09
2023-12-12T15:50:41.074Z,98415.28
2023-12-12T15:53:08.590Z,98425.91
2023-12-12T15:55:35.213Z,98428.47
2023-12-12T15:58:01.880Z,98425.29
2023-12-12T16:00:29.787Z,98422.16
2023-12-12T16:02:56.534Z,98421.86
2023-12-12T16:05:23.743Z,98432.80
2023-12-12T16:07:50.899Z,98438.59
2023-12-12T16:10:17.580Z,98429.68
2023-12-12T16:12:44.221Z,98399.84
2023-12-12T16:15:11.842Z,98401.92
2023-12-12T16:17:39.692Z,98415.38
2023-12-12T16:20:08.479Z,98418.89
2023-12-12T16:22:37.287Z,98416.67
2023-12-12T16:25:06.806Z,98409.65
2023-12-12T16:27:34.772Z,98412.06
2023-12-12T16:30:01.500Z,98412.12
2023-12-12T16:32:27.991Z,98405.14
2023-12-12T16:34:54.527Z,98401.23
2023-12-12T16:37:21.132Z,98407.61
2023-12-12T16:39:47.672Z,98406.80
2023-12-12T16:42:17.364Z,98395.27
2023-12-12T16:44:44.244Z,98390.31
2023-12-12T16:47:11.548Z,98384.67
2023-12-12T16:49:38.325Z,98382.54
2023-12-12T16:52:05.541Z,98371.92
2023-12-12T16:54:32.299Z,98358.16
2023-12-12T16:57:01.907Z,98356.44
2023-12-12T16:59:29.510Z,98361.05
2023-12-12T17:01:58.120Z,98367.67
2023-12-12T17:04:30.535Z,98360.71
2023-12-12T17:06:57.408Z,98362.12
2023-12-12T17:09:24.586Z,98370.86
2023-12-12T17:11:51.095Z,98377.56
2023-12-12T17:14:17.574Z,98375.20
2023-12-12T17:16:45.036Z,98372.33
2023-12-12T17:19:12.573Z,98369.95
2023-12-12T17:21:39.440Z,98367.33
2023-12-12T17:24:06.808Z,98362.09
2023-12-12T17:26:33.357Z,98353.85
2023-12-12T17:28:59.964Z,98359.20
2023-12-12T17:31:26.737Z,98367.10
2023-12-12T17:33:54.488Z,98360.71
2023-12-12T17:36:21.206Z,98362.52
2023-12-12T17:38:47.727Z,98367.02
2023-12-12T17:41:16.664Z,98372.77
2023-12-12T17:43:44.244Z,98373.39
2023-12-12T17:46:11.024Z,98373.78
2023-12-12T17:48:38.567Z,98373.29
2023-12-12T17:51:05.995Z,98370.94
2023-12-12T17:53:32.460Z,98360.13
2023-12-12T17:56:02.639Z,98360.38
2023-12-12T17:58:29.622Z,98360.02
2023-12-12T18:00:56.593Z,98354.48
2023-12-12T18:03:23.840Z,98354.03
2023-12-12T18:05:52.643Z,98351.84
2023-12-12T18:08:19.791Z,98348.33
2023-12-12T18:10:46.469Z,98348.13
2023-12-12T18:13:13.639Z,98355.67
2023-12-12T18:15:40.266Z,98361.45
2023-12-12T18:18:10.998Z,98355.42
2023-12-12T18:20:38.694Z,98349.86
2023-12-12T18:23:06.327Z,98344.26
2023-12-12T18:25:33.728Z,98338.20
2023-12-12T18:28:03.063Z,98335.46
2023-12-12T18:30:30.864Z,98333.66
2023-12-12T18:32:59.929Z,98330.16
2023-12-12T18:35:27.469Z,98334.77
2023-12-12T18:37:53.912Z,98341.91
2023-12-12T18:40:23.304Z,98343.42
2023-12-12T18:42:49.922Z,98342.04
2023-12-12T18:45:17.194Z,98342.38
2023-12-12T18:47:44.418Z,98333.46
2023-12-12T18:50:11.847Z,98332.73
2023-12-12T18:52:38.969Z,98331.95
2023-12-12T18:55:06.730Z,98329.77
2023-12-12T18:57:34.370Z,98328.64
2023-12-12T19:00:01.780Z,98330.89
2023-12-12T19:02:28.354Z,98332.98
2023-12-12T19:04:55.054Z,98331.34
2023-12-12T19:07:21.853Z,98324.59
2023-12-12T19:09:49.021Z,98323.95
2023-12-12T19:12:15.598Z,98319.71
2023-12-12T19:14:44.462Z,98323.54
2023-12-12T19:17:11.037Z,98324.92
2023-12-12T19:19:41.139Z,98327.02
2023-12-12T19:22:08.359Z,98323.64
2023-12-12T19:24:35.686Z,98315.96
2023-12-12T19:27:02.598Z,98309.88
2023-12-12T19:29:30.840Z,98309.63
2023-12-12T19:31:57.573Z,98290.47
2023-12-12T19:34:24.470Z,98290.36
2023-12-12T19:36:51.187Z,98300.98
2023-12-12T19:39:17.815Z,98309.88
2023-12-12T19:41:46.408Z,98318.20
2023-12-12T19:44:13.246Z,98317.66
2023-12-12T19:46:47.629Z,98304.31
2023-12-12T19:49:15.489Z,98306.05
2023-12-12T19:51:51.917Z,98296.02
2023-12-12T19:54:18.674Z,98286.06
2023-12-12T19:56:45.527Z,98289.57
2023-12-12T19:59:12.873Z,98290.91
2023-12-12T20:01:39.488Z,98283.85
2023-12-12T20:04:06.388Z,98288.41
2023-12-12T20:06:32.971Z,98288.01
2023-12-12T20:08:59.469Z,98285.48
2023-12-12T20:11:26.905Z,98294.67
2023-12-12T20:13:53.729Z,98298.23
2023-12-12T20:16:24.299Z,98305.85
2023-12-12T20:18:52.156Z,98313.58
2023-12-12T20:21:22.105Z,98313.74
2023-12-12T20:23:52.567Z,98311.25
2023-12-12T20:26:19.477Z,98300.71
2023-12-12T20:28:49.176Z,98291.00
2023-12-12T20:31:16.626Z,98297.82
2023-12-12T20:33:43.457Z,98295.33
2023-12-12T20:36:10.783Z,98289.49
2023-12-12T20:38:38.506Z,98285.36
2023-12-12T20:41:07.765Z,98289.05
2023-12-12T20:43:34.874Z,98280.50
2023-12-12T20:46:01.534Z,98272.30
2023-12-12T20:48:28.165Z,98260.95
2023-12-12T20:50:55.498Z,98258.36
2023-12-12T20:53:22.336Z,98256.88
2023-12-12T20:55:49.017Z,98259.76
2023-12-12T20:58:15.787Z,98254.40
2023-12-12T21:00:42.388Z,98254.42
2023-12-12T21:03:10.494Z,98247.89
2023-12-12T21:05:37.387Z,98246.73
2023-12-12T21:08:04.113Z,98247.54
2023-12-12T21:10:30.728Z,98246.83
2023-12-12T21:12:57.343Z,98244.70
2023-12-12T21:15:26.058Z,98238.93
2023-12-12T21:17:53.083Z,98240.69
2023-12-12T21:20:19.940Z,98236.61
2023-12-12T21:22:47.696Z,98243.30
2023-12-12T21:25:14.358Z,98251.34
2023-12-12T21:27:40.886Z,98253.84
2023-12-12T21:30:08.489Z,98263.17
2023-12-12T21:32:35.423Z,98266.14
2023-12-12T21:35:03.084Z,98268.48
2023-12-12T21:37:31.166Z,98272.46
2023-12-12T21:40:02.582Z,98270.98
2023-12-12T21:42:29.893Z,98265.35
2023-12-12T21:44:58.292Z,98257.74
2023-12-12T21:47:25.982Z,98267.92
2023-12-12T21:49:52.895Z,98278.06
2023-12-12T21:52:20.519Z,98281.73
2023-12-12T21:54:47.686Z,98284.60
2023-12-12T21:57:14.727Z,98284.10
2023-12-12T21:59:41.300Z,98286.98
2023-12-12T22:02:08.074Z,98287.75
2023-12-12T22:04:34.836Z,98289.90
2023-12-12T22:07:01.409Z,98292.10
2023-12-12T22:09:27.945Z,98292.63
2023-12-12T22:11:55.484Z,98298.18
2023-12-12T22:14:22.208Z,98301.30
2023-12-12T22:16:48.720Z,98297.73
2023-12-12T22:19:15.359Z,98295.05
2023-12-12T22:21:42.122Z,98289.27
2023-12-12T22:24:08.728Z,98277.80
2023-12-12T22:26:35.361Z,98270.30
2023-12-12T22:29:04.080Z,98270.34
2023-12-12T22:31:30.901Z,98268.97
2023-12-12T22:33:57.579Z,98277.87
2023-12-12T22:36:24.194Z,98279.19
2023-12-12T22:38:51.263Z,98285.12
2023-12-12T22:41:21.781Z,98285.27
2023-12-12T22:43:49.002Z,98287.36
2023-12-12T22:46:18.904Z,98289.17
2023-12-12T22:48:45.748Z,98291.95
2023-12-12T22:51:16.757Z,98286.15
2023-12-12T22:53:43.469Z,98277.63
2023-12-12T22:56:13.428Z,98281.92
2023-12-12T22:58:43.689Z,98291.52
2023-12-12T23:01:11.249Z,98297.36
2023-12-12T23:03:37.965Z,98300.34
2023-12-12T23:06:07.762Z,98293.77
2023-12-12T23:08:35.139Z,98297.02
2023-12-12T23:11:02.031Z,98297.79
2023-12-12T23:13:28.550Z,98298.19
2023-12-12T23:15:55.331Z,98300.38
2023-12-12T23:18:21.998Z,98301.64
2023-12-12T23:20:49.225Z,98303.54
2023-12-12T23:23:15.739Z,98296.29
2023-12-12T23:25:42.866Z,98295.28
2023-12-12T23:28:10.987Z,98299.54
2023-12-12T23:30:38.311Z,98299.73
2023-12-12T23:33:04.829Z,98299.36
2023-12-12T23:35:31.919Z,98295.80
2023-12-12T23:37:58.611Z,98294.03
2023-12-12T23:40:25.219Z,98287.63
2023-12-12T23:42:51.770Z,98286.43
2023-12-12T23:45:22.375Z,98283.21
2023-12-12T23:47:55.245Z,98276.48
2023-12-12T23:50:21.830Z,98276.61
2023-12-12T23:52:48.333Z,98275.02
2023-12-12T23:55:16.324Z,98276.16
2023-12-12T23:57:44.039Z,98268.48
